Time;durP1;ratioP1;P1;durP2;ratioP2;P2;SDS_P1;SDS_P2;PMS_P1;PMS_P2;Temp;Humidity;BMP_temperature;BMP_pressure;BME280_temperature;BME280_humidity;BME280_pressure;Samples;Min_cycle;Max_cycle;Signal;HPM_P1;HPM_P2
2023/03/23 00:01:49;;;;;;;6.50;2.97;;;12.40;1.00;;;;;;5021532;28;20471;-86
2023/03/23 00:04:16;;;;;;;7.63;2.73;;;12.50;1.00;;;;;;5026858;28;20533;-86
2023/03/23 00:06:46;;;;;;;8.27;3.17;;;12.50;1.00;;;;;;5016252;28;20503;-86
2023/03/23 00:09:14;;;;;;;8.50;3.43;;;12.50;1.00;;;;;;5024709;28;20480;-85
2023/03/23 00:11:42;;;;;;;6.93;2.70;;;12.50;1.00;;;;;;5019268;28;20959;-85
2023/03/23 00:14:12;;;;;;;7.20;3.00;;;12.50;1.00;;;;;;5016924;28;20459;-86
2023/03/23 00:16:42;;;;;;;7.67;3.37;;;12.50;1.00;;;;;;5022706;28;21105;-85
2023/03/23 00:19:13;;;;;;;10.03;2.67;;;12.50;1.00;;;;;;5023999;28;20555;-84
2023/03/23 00:21:42;;;;;;;7.57;3.23;;;12.60;1.00;;;;;;5021094;28;20455;-85
2023/03/23 00:24:15;;;;;;;7.50;3.07;;;12.60;1.00;;;;;;5025563;28;20542;-84
2023/03/23 00:26:44;;;;;;;10.57;3.40;;;12.60;1.00;;;;;;5008085;28;20460;-85
2023/03/23 00:29:15;;;;;;;7.80;2.60;;;12.60;1.00;;;;;;5025365;28;20449;-84
2023/03/23 00:31:46;;;;;;;6.93;3.00;;;12.60;1.00;;;;;;5023624;28;20510;-85
2023/03/23 00:34:19;;;;;;;7.00;2.90;;;12.80;1.00;;;;;;5025354;28;20489;-86
2023/03/23 00:36:47;;;;;;;6.20;2.90;;;12.70;1.00;;;;;;5017584;28;20465;-85
2023/03/23 00:39:17;;;;;;;5.97;2.60;;;12.70;1.00;;;;;;5025240;28;20503;-85
2023/03/23 00:41:44;;;;;;;7.60;2.90;;;12.70;1.00;;;;;;5022706;28;20583;-85
2023/03/23 00:44:16;;;;;;;6.07;2.83;;;12.70;1.00;;;;;;5023874;28;20830;-85
2023/03/23 00:46:44;;;;;;;7.87;2.77;;;12.60;1.00;;;;;;5022854;28;20466;-85
2023/03/23 00:49:13;;;;;;;6.60;2.67;;;12.60;1.00;;;;;;5021719;28;20647;-86
2023/03/23 00:51:41;;;;;;;5.87;2.50;;;12.50;1.00;;;;;;5023862;28;20933;-87
2023/03/23 00:54:09;;;;;;;9.13;3.13;;;12.50;1.00;;;;;;5022878;28;20517;-85
2023/03/23 00:56:38;;;;;;;6.53;2.90;;;12.40;1.00;;;;;;5027692;28;20985;-85
2023/03/23 00:59:06;;;;;;;7.03;3.10;;;12.40;1.00;;;;;;5024599;28;20474;-85
2023/03/23 01:01:33;;;;;;;6.30;2.70;;;12.40;1.00;;;;;;5025216;28;20449;-86
2023/03/23 01:04:03;;;;;;;8.17;2.80;;;12.30;1.00;;;;;;5020521;28;20518;-85
2023/03/23 01:06:34;;;;;;;6.47;2.67;;;12.20;1.00;;;;;;5024943;28;20470;-85
2023/03/23 01:09:03;;;;;;;6.83;2.50;;;12.10;1.00;;;;;;5023855;28;21294;-85
2023/03/23 01:11:30;;;;;;;6.87;2.60;;;12.10;1.00;;;;;;5019331;28;20437;-84
2023/03/23 01:13:59;;;;;;;7.17;2.87;;;12.10;1.00;;;;;;5027354;28;20945;-84
2023/03/23 01:16:27;;;;;;;6.50;2.70;;;12.00;1.00;;;;;;5022116;28;20491;-84
2023/03/23 01:18:54;;;;;;;9.33;3.50;;;12.00;1.00;;;;;;5021131;28;20481;-85
2023/03/23 01:21:21;;;;;;;7.17;3.80;;;12.10;1.00;;;;;;5025321;28;20490;-81
2023/03/23 01:23:50;;;;;;;6.70;3.00;;;12.00;1.00;;;;;;5021523;28;20537;-84
2023/03/23 01:26:19;;;;;;;6.70;3.07;;;12.00;1.00;;;;;;5020762;28;20521;-85
2023/03/23 01:28:46;;;;;;;8.83;3.43;;;11.90;1.00;;;;;;5026504;28;20509;-85
2023/03/23 01:31:17;;;;;;;7.63;3.27;;;11.90;1.00;;;;;;5026721;28;20545;-85
2023/03/23 01:33:45;;;;;;;6.17;3.00;;;11.90;1.00;;;;;;5023034;28;20565;-86
2023/03/23 01:36:13;;;;;;;6.30;3.10;;;11.90;1.00;;;;;;5027977;28;20449;-85
2023/03/23 01:38:42;;;;;;;7.77;3.20;;;11.90;1.00;;;;;;5021459;28;22389;-85
2023/03/23 01:41:09;;;;;;;6.17;3.33;;;11.90;1.00;;;;;;5022911;28;20524;-86
2023/03/23 01:43:36;;;;;;;6.60;2.70;;;11.90;1.00;;;;;;5018500;28;20476;-84
2023/03/23 01:46:03;;;;;;;7.13;3.00;;;11.80;1.00;;;;;;5022695;28;20685;-84
2023/03/23 01:48:35;;;;;;;7.43;3.23;;;11.80;1.00;;;;;;5025965;28;20470;-84
2023/03/23 01:51:07;;;;;;;6.70;3.30;;;11.90;1.00;;;;;;5024464;28;20906;-85
2023/03/23 01:53:38;;;;;;;5.77;2.73;;;11.80;1.00;;;;;;5021840;28;20510;-85
2023/03/23 01:56:07;;;;;;;7.67;3.30;;;11.80;1.00;;;;;;5025655;28;20482;-86
2023/03/23 01:58:37;;;;;;;7.10;2.93;;;11.80;1.00;;;;;;5019834;28;20473;-85
2023/03/23 02:01:08;;;;;;;6.50;3.10;;;11.80;1.00;;;;;;5028927;28;20486;-85
2023/03/23 02:03:38;;;;;;;6.07;2.40;;;12.00;1.00;;;;;;5023428;28;20489;-86
2023/03/23 02:06:06;;;;;;;6.80;2.80;;;11.90;1.00;;;;;;5021300;28;20516;-86
2023/03/23 02:08:34;;;;;;;6.80;2.90;;;11.90;1.00;;;;;;5022905;28;20478;-84
2023/03/23 02:11:01;;;;;;;6.93;2.97;;;11.90;1.00;;;;;;5028278;28;20474;-86
2023/03/23 02:13:29;;;;;;;8.03;3.17;;;12.00;1.00;;;;;;5023998;28;21044;-84
2023/03/23 02:16:04;;;;;;;5.97;3.07;;;12.00;1.00;;;;;;5031143;28;20547;-84
2023/03/23 02:18:55;;;;;;;7.80;3.73;;;11.90;1.00;;;;;;5024429;28;20473;-85
2023/03/23 02:22:01;;;;;;;7.30;3.27;;;11.90;1.00;;;;;;5024826;28;20481;-85
2023/03/23 02:25:00;;;;;;;9.13;3.13;;;11.90;1.00;;;;;;5028572;28;20461;-85
2023/03/23 02:28:02;;;;;;;6.13;3.00;;;11.90;1.00;;;;;;5028807;28;20421;-84
2023/03/23 02:30:45;;;;;;;6.90;3.33;;;11.90;1.00;;;;;;5025245;28;20471;-84
2023/03/23 02:33:37;;;;;;;6.13;2.90;;;12.00;1.00;;;;;;5030865;28;20512;-85
2023/03/23 02:36:13;;;;;;;7.03;2.77;;;12.00;1.00;;;;;;5026159;28;20432;-86
2023/03/23 02:38:50;;;;;;;6.47;3.00;;;12.20;1.00;;;;;;5027575;28;20503;-85
2023/03/23 02:41:20;;;;;;;7.30;2.83;;;12.20;1.00;;;;;;5029494;28;20457;-85
2023/03/23 02:43:49;;;;;;;6.10;2.93;;;12.30;1.00;;;;;;5028285;28;21255;-85
2023/03/23 02:46:17;;;;;;;5.70;2.63;;;12.30;1.00;;;;;;5029368;28;20540;-86
2023/03/23 02:48:51;;;;;;;6.67;3.00;;;12.40;1.00;;;;;;5029240;28;20477;-85
2023/03/23 02:51:20;;;;;;;8.60;3.30;;;12.40;1.00;;;;;;5028439;28;20507;-85
2023/03/23 02:53:50;;;;;;;6.40;3.33;;;12.40;1.00;;;;;;5027589;28;20470;-84
2023/03/23 02:56:24;;;;;;;7.40;3.33;;;12.30;1.00;;;;;;5026349;28;20474;-85
2023/03/23 02:58:51;;;;;;;7.70;3.27;;;12.10;1.00;;;;;;5029435;28;20493;-85
2023/03/23 03:01:52;;;;;;;6.80;3.17;;;12.00;1.00;;;;;;5026846;28;20475;-85
2023/03/23 03:04:26;;;;;;;6.87;3.10;;;11.90;1.00;;;;;;5026638;28;20566;-84
2023/03/23 03:07:18;;;;;;;6.80;2.83;;;11.70;1.00;;;;;;5032444;28;21121;-84
2023/03/23 03:09:50;;;;;;;8.07;3.30;;;11.70;1.00;;;;;;5022057;28;22403;-84
2023/03/23 03:12:24;;;;;;;7.67;2.90;;;11.70;1.00;;;;;;5019092;28;20462;-85
2023/03/23 03:14:59;;;;;;;7.00;3.47;;;11.70;1.00;;;;;;5028460;28;20838;-84
2023/03/23 03:17:27;;;;;;;6.43;2.40;;;11.70;1.00;;;;;;5026899;28;20599;-84
2023/03/23 03:20:04;;;;;;;6.97;3.17;;;11.80;1.00;;;;;;5028565;28;21031;-84
2023/03/23 03:22:31;;;;;;;6.40;2.90;;;11.80;1.00;;;;;;5026828;28;20939;-84
2023/03/23 03:25:00;;;;;;;7.20;3.17;;;11.90;1.00;;;;;;5021923;28;20590;-84
2023/03/23 03:27:31;;;;;;;5.50;2.63;;;12.00;1.00;;;;;;5022343;28;20493;-86
2023/03/23 03:30:03;;;;;;;6.23;3.00;;;12.10;1.00;;;;;;5012160;28;20553;-85
2023/03/23 03:32:38;;;;;;;7.70;2.93;;;12.10;1.00;;;;;;5025452;28;20472;-86
2023/03/23 03:35:08;;;;;;;6.13;2.43;;;12.20;1.00;;;;;;5029128;28;20445;-84
2023/03/23 03:40:26;;;;;;;6.47;2.60;;;12.20;1.00;;;;;;4991917;23;1210897;-88
2023/03/23 03:42:53;;;;;;;6.60;2.73;;;12.20;1.00;;;;;;5007069;28;20230;-89
2023/03/23 03:45:21;;;;;;;7.50;2.70;;;12.20;1.00;;;;;;5010740;28;20495;-88
2023/03/23 03:47:48;;;;;;;6.23;2.73;;;12.10;1.00;;;;;;5004000;28;20552;-87
2023/03/23 03:50:17;;;;;;;8.73;2.90;;;12.10;1.00;;;;;;5004936;28;20483;-87
2023/03/23 03:52:44;;;;;;;6.73;2.73;;;12.10;1.00;;;;;;5005539;28;20448;-88
2023/03/23 03:55:12;;;;;;;7.33;3.10;;;12.20;1.00;;;;;;5003571;28;21200;-87
2023/03/23 03:57:41;;;;;;;7.83;2.63;;;12.00;1.00;;;;;;5004616;28;20463;-88
2023/03/23 04:00:14;;;;;;;6.73;2.87;;;11.90;1.00;;;;;;5004810;28;20481;-87
2023/03/23 04:02:43;;;;;;;6.20;2.47;;;11.90;1.00;;;;;;5006987;28;20901;-87
2023/03/23 04:05:11;;;;;;;6.27;2.63;;;11.90;1.00;;;;;;4990166;28;20990;-87
2023/03/23 04:07:41;;;;;;;6.40;2.87;;;11.90;1.00;;;;;;5008887;28;20504;-89
2023/03/23 04:10:10;;;;;;;6.93;2.67;;;11.90;1.00;;;;;;5013745;28;20483;-88
2023/03/23 04:12:38;;;;;;;5.97;2.63;;;11.90;1.00;;;;;;5003209;28;20516;-88
2023/03/23 04:15:07;;;;;;;6.20;2.83;;;11.80;1.00;;;;;;5007998;28;20449;-88
2023/03/23 04:17:35;;;;;;;7.77;3.10;;;11.90;1.00;;;;;;5007564;28;21347;-88
2023/03/23 04:20:06;;;;;;;6.30;3.07;;;12.00;1.00;;;;;;5007529;28;20424;-87
2023/03/23 04:22:34;;;;;;;6.80;3.00;;;12.00;1.00;;;;;;5009202;28;20477;-87
2023/03/23 04:25:06;;;;;;;7.03;3.00;;;12.00;1.00;;;;;;5009831;28;20497;-89
2023/03/23 04:27:34;;;;;;;6.40;3.23;;;12.00;1.00;;;;;;4970807;28;20437;-85
2023/03/23 04:30:02;;;;;;;7.10;3.20;;;12.00;1.00;;;;;;5010052;28;20486;-87
2023/03/23 04:32:30;;;;;;;5.93;2.60;;;12.10;1.00;;;;;;5009494;28;20498;-86
2023/03/23 04:34:59;;;;;;;8.27;3.10;;;12.10;1.00;;;;;;5002162;28;20948;-88
2023/03/23 04:37:28;;;;;;;7.30;2.80;;;12.10;1.00;;;;;;5009897;28;20775;-86
2023/03/23 04:40:00;;;;;;;6.23;2.97;;;12.20;1.00;;;;;;5007487;28;20483;-88
2023/03/23 04:42:30;;;;;;;5.97;2.77;;;12.20;1.00;;;;;;5002644;28;21299;-87
2023/03/23 04:44:57;;;;;;;7.57;3.47;;;12.20;1.00;;;;;;5005210;28;20660;-88
2023/03/23 04:47:25;;;;;;;6.10;3.10;;;12.20;1.00;;;;;;5006635;28;20452;-85
2023/03/23 04:49:52;;;;;;;6.47;2.77;;;12.20;1.00;;;;;;5009951;28;20504;-87
2023/03/23 04:52:20;;;;;;;5.83;2.90;;;12.10;1.00;;;;;;5004738;28;20564;-88
2023/03/23 04:54:47;;;;;;;6.37;3.17;;;12.10;1.00;;;;;;5008398;28;20461;-86
2023/03/23 04:57:15;;;;;;;7.67;3.70;;;12.20;1.00;;;;;;5010334;28;20674;-88
2023/03/23 04:59:43;;;;;;;7.43;3.73;;;12.20;1.00;;;;;;5009320;28;20465;-88
2023/03/23 05:02:12;;;;;;;8.60;3.17;;;12.40;1.00;;;;;;5006615;28;20907;-88
2023/03/23 05:04:40;;;;;;;7.23;3.70;;;12.40;1.00;;;;;;4997785;28;20497;-88
2023/03/23 05:07:07;;;;;;;6.87;3.70;;;12.50;1.00;;;;;;5007093;28;20471;-87
2023/03/23 05:09:35;;;;;;;12.27;8.50;;;12.50;1.00;;;;;;5001620;28;20448;-87
2023/03/23 05:12:05;;;;;;;8.60;3.73;;;12.60;1.00;;;;;;5005513;28;20480;-88
2023/03/23 05:14:32;;;;;;;6.20;3.27;;;12.40;1.00;;;;;;5003722;28;20502;-88
2023/03/23 05:17:00;;;;;;;7.53;3.43;;;12.40;1.00;;;;;;5005097;28;20477;-88
2023/03/23 05:19:28;;;;;;;7.30;4.17;;;12.40;1.00;;;;;;5007255;28;20417;-86
2023/03/23 05:21:55;;;;;;;8.30;3.63;;;12.20;1.00;;;;;;5006501;28;20480;-87
2023/03/23 05:24:22;;;;;;;5.80;2.90;;;12.10;1.00;;;;;;5013790;28;20489;-83
2023/03/23 05:26:52;;;;;;;6.10;3.20;;;12.00;1.00;;;;;;5006657;28;20468;-88
2023/03/23 05:29:19;;;;;;;9.17;3.80;;;12.00;1.00;;;;;;5007009;28;20854;-89
2023/03/23 05:31:47;;;;;;;7.70;3.87;;;11.90;1.00;;;;;;5008091;28;20444;-85
2023/03/23 05:34:16;;;;;;;10.20;6.33;;;11.90;1.00;;;;;;5007529;28;20452;-88
2023/03/23 05:36:44;;;;;;;8.17;4.10;;;11.80;1.00;;;;;;5008848;28;20509;-89
2023/03/23 05:39:12;;;;;;;7.27;3.97;;;11.70;1.00;;;;;;5006079;28;20471;-88
2023/03/23 05:41:40;;;;;;;9.33;4.63;;;11.60;1.00;;;;;;5003557;28;20920;-88
2023/03/23 05:44:07;;;;;;;7.77;4.20;;;11.60;1.00;;;;;;5008848;28;20466;-88
2023/03/23 05:46:38;;;;;;;7.00;3.50;;;11.60;1.00;;;;;;5009687;28;20452;-87
2023/03/23 05:49:05;;;;;;;7.23;4.00;;;11.50;1.00;;;;;;5010677;28;20456;-89
2023/03/23 05:51:33;;;;;;;9.13;4.00;;;11.40;1.00;;;;;;5015203;28;20569;-89
2023/03/23 05:54:01;;;;;;;7.80;3.63;;;11.30;1.00;;;;;;5010631;28;20450;-87
2023/03/23 05:56:30;;;;;;;7.13;3.20;;;11.20;1.00;;;;;;5008568;28;20471;-87
2023/03/23 05:58:57;;;;;;;8.10;2.53;;;11.20;1.00;;;;;;5009400;28;20456;-87
2023/03/23 06:01:24;;;;;;;9.20;2.93;;;11.20;1.00;;;;;;5003843;28;20454;-87
2023/03/23 06:03:53;;;;;;;9.03;2.87;;;11.10;1.00;;;;;;5015215;28;20434;-87
2023/03/23 06:06:21;;;;;;;7.17;2.80;;;11.10;1.00;;;;;;5011887;28;21280;-87
2023/03/23 06:08:50;;;;;;;7.40;2.93;;;11.00;1.00;;;;;;5019106;28;20430;-88
2023/03/23 06:11:18;;;;;;;8.53;3.00;;;11.00;1.00;;;;;;5013403;28;20913;-87
2023/03/23 06:13:46;;;;;;;7.90;2.90;;;10.90;1.00;;;;;;5011851;28;20462;-87
2023/03/23 06:16:13;;;;;;;8.53;2.67;;;10.90;1.00;;;;;;5016234;28;20455;-87
2023/03/23 06:18:40;;;;;;;9.07;4.00;;;10.90;1.00;;;;;;5013080;28;20422;-86
2023/03/23 06:21:11;;;;;;;9.37;2.87;;;10.90;1.00;;;;;;5014505;28;20483;-86
2023/03/23 06:23:38;;;;;;;7.83;2.90;;;10.90;1.00;;;;;;5017546;28;20419;-85
2023/03/23 06:26:09;;;;;;;10.70;3.17;;;10.80;1.00;;;;;;5015868;28;20459;-86
2023/03/23 06:28:36;;;;;;;9.47;3.13;;;10.80;1.00;;;;;;5009254;28;20466;-88
2023/03/23 06:31:06;;;;;;;7.57;2.87;;;10.80;1.00;;;;;;5009619;28;20438;-82
2023/03/23 06:33:33;;;;;;;8.43;2.83;;;10.90;1.00;;;;;;5011589;28;20442;-81
2023/03/23 06:36:02;;;;;;;9.60;3.50;;;10.90;1.00;;;;;;5004170;28;20450;-83
2023/03/23 06:38:30;;;;;;;8.47;2.93;;;11.00;1.00;;;;;;5012646;28;20466;-83
2023/03/23 06:40:57;;;;;;;8.07;2.80;;;11.00;1.00;;;;;;5005630;28;20479;-81
2023/03/23 06:43:26;;;;;;;8.60;2.83;;;10.90;1.00;;;;;;5007779;28;20502;-80
2023/03/23 06:45:53;;;;;;;9.87;2.90;;;11.00;1.00;;;;;;5012720;28;20474;-81
2023/03/23 06:48:20;;;;;;;11.00;2.83;;;10.90;1.00;;;;;;5001872;28;20564;-82
2023/03/23 06:50:47;;;;;;;9.50;3.00;;;10.90;1.00;;;;;;4997011;28;20485;-81
2023/03/23 06:53:16;;;;;;;8.33;3.00;;;10.90;1.00;;;;;;4999380;28;20469;-80
2023/03/23 06:55:45;;;;;;;8.37;2.93;;;11.00;1.00;;;;;;5001876;28;20540;-82
2023/03/23 06:58:14;;;;;;;8.60;3.47;;;11.00;1.00;;;;;;5004641;28;20459;-81
2023/03/23 07:00:42;;;;;;;8.60;3.00;;;11.00;1.00;;;;;;4997611;28;25924;-81
2023/03/23 07:03:10;;;;;;;7.73;2.73;;;11.00;1.00;;;;;;5004148;28;20419;-83
2023/03/23 07:05:37;;;;;;;8.10;2.87;;;11.10;1.00;;;;;;4988081;28;20962;-80
2023/03/23 07:08:04;;;;;;;8.80;2.90;;;11.10;1.00;;;;;;4984064;28;20460;-82
2023/03/23 07:10:37;;;;;;;9.40;3.30;;;11.10;1.00;;;;;;5004167;28;20476;-84
2023/03/23 07:13:06;;;;;;;9.23;2.80;;;11.20;1.00;;;;;;5007165;28;20451;-84
2023/03/23 07:15:34;;;;;;;8.60;3.10;;;11.20;1.00;;;;;;5006123;28;20537;-85
2023/03/23 07:18:05;;;;;;;9.83;3.30;;;11.20;1.00;;;;;;5010927;28;20413;-85
2023/03/23 07:20:48;;;;;;;10.73;3.47;;;11.20;1.00;;;;;;5013519;28;21334;-86
2023/03/23 07:23:17;;;;;;;9.93;3.97;;;11.20;1.00;;;;;;5007363;28;20440;-85
2023/03/23 07:25:48;;;;;;;7.40;2.97;;;11.20;1.00;;;;;;5003370;28;21374;-83
2023/03/23 07:28:16;;;;;;;8.60;2.90;;;11.30;1.00;;;;;;4999329;28;20447;-81
2023/03/23 07:30:44;;;;;;;10.83;3.03;;;11.30;1.00;;;;;;5001503;28;21360;-81
2023/03/23 07:33:13;;;;;;;8.97;3.43;;;11.20;1.00;;;;;;4999580;28;20463;-79
2023/03/23 07:35:40;;;;;;;8.53;3.30;;;11.20;1.00;;;;;;4999000;28;20454;-84
2023/03/23 07:38:08;;;;;;;9.90;3.67;;;11.20;1.00;;;;;;5007820;28;20553;-85
2023/03/23 07:40:36;;;;;;;10.20;3.40;;;11.20;1.00;;;;;;5009557;28;20524;-87
2023/03/23 07:43:19;;;;;;;9.33;3.37;;;11.30;1.00;;;;;;4992353;28;20914;-85
2023/03/23 07:45:46;;;;;;;9.33;3.43;;;11.30;1.00;;;;;;5001994;28;21033;-82
2023/03/23 07:48:14;;;;;;;8.63;3.80;;;11.30;1.00;;;;;;5007453;28;21162;-84
2023/03/23 07:50:42;;;;;;;10.70;3.70;;;11.30;1.00;;;;;;4998815;28;22283;-88
2023/03/23 07:53:09;;;;;;;7.80;3.13;;;11.30;1.00;;;;;;5000632;28;20533;-85
2023/03/23 07:55:37;;;;;;;8.30;3.00;;;11.30;1.00;;;;;;5003470;28;20459;-84
2023/03/23 07:58:04;;;;;;;9.10;3.37;;;11.40;1.00;;;;;;5002365;28;20464;-84
2023/03/23 08:00:32;;;;;;;9.70;3.20;;;11.50;1.00;;;;;;4997016;28;20575;-82
2023/03/23 08:03:00;;;;;;;9.10;3.27;;;11.40;1.00;;;;;;5003254;28;20535;-84
2023/03/23 08:05:33;;;;;;;9.40;2.87;;;11.40;1.00;;;;;;5001006;28;20637;-85
2023/03/23 08:08:01;;;;;;;9.63;2.90;;;11.40;1.00;;;;;;5005939;28;20498;-86
2023/03/23 08:10:29;;;;;;;8.10;3.00;;;11.40;1.00;;;;;;5006302;28;20454;-81
2023/03/23 08:12:59;;;;;;;8.67;3.17;;;11.40;1.00;;;;;;4985072;28;20454;-86
2023/03/23 08:15:26;;;;;;;18.17;9.20;;;11.40;1.00;;;;;;4984523;28;20471;-85
2023/03/23 08:17:53;;;;;;;9.13;3.70;;;11.50;1.00;;;;;;5007971;28;20455;-85
2023/03/23 08:20:20;;;;;;;9.87;3.43;;;11.60;1.00;;;;;;5002338;28;20583;-86
2023/03/23 08:22:52;;;;;;;8.97;2.90;;;11.70;1.00;;;;;;5005980;28;20459;-83
2023/03/23 08:25:20;;;;;;;9.10;4.40;;;11.70;1.00;;;;;;4994468;28;20456;-89
2023/03/23 08:27:48;;;;;;;8.03;3.47;;;11.80;1.00;;;;;;4996449;28;20467;-85
2023/03/23 08:30:19;;;;;;;9.70;3.17;;;11.80;1.00;;;;;;5004786;28;20512;-84
2023/03/23 08:32:46;;;;;;;8.33;3.50;;;11.90;1.00;;;;;;5001902;28;20470;-83
2023/03/23 08:35:15;;;;;;;9.77;3.30;;;11.90;1.00;;;;;;4996351;28;20479;-82
2023/03/23 08:37:45;;;;;;;8.43;3.10;;;11.90;1.00;;;;;;4992323;28;20544;-83
2023/03/23 08:40:19;;;;;;;8.53;3.10;;;11.90;1.00;;;;;;5005376;28;20475;-88
2023/03/23 08:42:48;;;;;;;10.93;3.30;;;11.90;1.00;;;;;;5000040;28;20462;-87
2023/03/23 08:45:18;;;;;;;7.80;3.00;;;11.80;1.00;;;;;;4992336;28;21297;-85
2023/03/23 08:47:51;;;;;;;9.23;3.20;;;11.70;1.00;;;;;;4996531;28;20466;-86
2023/03/23 08:50:22;;;;;;;9.93;3.03;;;11.60;1.00;;;;;;4993634;28;20501;-85
2023/03/23 08:52:52;;;;;;;8.47;3.00;;;11.60;1.00;;;;;;5001315;28;20475;-84
2023/03/23 08:55:22;;;;;;;10.20;3.90;;;11.60;1.00;;;;;;5001251;28;20494;-87
2023/03/23 08:57:49;;;;;;;7.77;2.90;;;11.80;1.00;;;;;;4999765;28;21250;-85
2023/03/23 09:00:26;;;;;;;8.70;3.33;;;12.00;1.00;;;;;;4993568;28;20509;-84
2023/03/23 09:02:56;;;;;;;7.93;3.00;;;12.00;1.00;;;;;;4991637;28;20575;-85
2023/03/23 09:05:25;;;;;;;7.23;2.63;;;12.00;1.00;;;;;;4999768;28;20463;-85
2023/03/23 09:07:53;;;;;;;7.90;3.20;;;12.10;1.00;;;;;;4995411;28;20474;-85
2023/03/23 09:10:31;;;;;;;7.37;2.70;;;12.20;1.00;;;;;;4996045;28;20495;-86
2023/03/23 09:12:59;;;;;;;7.60;3.03;;;12.50;1.00;;;;;;5003699;28;20458;-86
2023/03/23 09:15:28;;;;;;;9.23;2.90;;;12.80;1.00;;;;;;5000472;28;20558;-85
2023/03/23 09:17:56;;;;;;;6.97;2.30;;;12.90;1.00;;;;;;4999672;28;20499;-86
2023/03/23 09:20:25;;;;;;;9.13;3.00;;;12.80;1.00;;;;;;4999344;28;20556;-85
2023/03/23 09:22:54;;;;;;;6.87;2.10;;;12.70;1.00;;;;;;5002140;28;20459;-82
2023/03/23 09:25:25;;;;;;;7.63;2.93;;;12.70;1.00;;;;;;4996036;28;20460;-85
2023/03/23 09:27:57;;;;;;;7.73;2.60;;;12.80;1.00;;;;;;4990639;28;20609;-87
2023/03/23 09:30:26;;;;;;;7.60;2.87;;;12.80;1.00;;;;;;5003348;28;20487;-86
2023/03/23 09:32:55;;;;;;;6.90;2.53;;;12.80;1.00;;;;;;4995286;28;20513;-83
2023/03/23 09:35:27;;;;;;;7.20;2.40;;;13.00;1.00;;;;;;4995022;28;20430;-83
2023/03/23 09:37:54;;;;;;;8.10;3.20;;;13.10;1.00;;;;;;4994447;28;20472;-84
2023/03/23 09:40:28;;;;;;;7.93;2.57;;;13.30;1.00;;;;;;5005881;28;20525;-84
2023/03/23 09:43:07;;;;;;;7.70;2.87;;;13.50;1.00;;;;;;4999818;28;20501;-84
2023/03/23 09:45:42;;;;;;;9.60;4.17;;;13.80;1.00;;;;;;5001647;28;20505;-84
2023/03/23 09:48:25;;;;;;;7.03;2.10;;;14.40;1.00;;;;;;5000807;28;21110;-86
2023/03/23 09:50:58;;;;;;;6.50;2.47;;;15.10;1.00;;;;;;4999473;28;20515;-87
2023/03/23 09:53:34;;;;;;;8.10;2.53;;;15.50;1.00;;;;;;4999306;28;20453;-85
2023/03/23 09:56:09;;;;;;;6.67;2.43;;;15.60;1.00;;;;;;5004056;28;20913;-84
2023/03/23 09:58:46;;;;;;;6.90;2.73;;;15.80;1.00;;;;;;4993487;28;20453;-85
2023/03/23 10:01:18;;;;;;;6.90;1.97;;;15.80;1.00;;;;;;5007041;28;21006;-85
2023/03/23 10:03:46;;;;;;;6.33;1.90;;;16.00;1.00;;;;;;5000264;28;20822;-87
2023/03/23 10:06:19;;;;;;;6.50;2.20;;;15.80;1.00;;;;;;5003493;28;20464;-86
2023/03/23 10:08:48;;;;;;;7.20;2.27;;;15.70;1.00;;;;;;5009167;28;20460;-87
2023/03/23 10:11:28;;;;;;;5.60;2.20;;;15.60;1.00;;;;;;4995066;28;20474;-88
2023/03/23 10:14:14;;;;;;;6.60;2.10;;;15.40;1.00;;;;;;5006961;28;20441;-88
2023/03/23 10:16:48;;;;;;;6.27;2.13;;;15.10;1.00;;;;;;5004050;28;20552;-89
2023/03/23 10:19:21;;;;;;;5.90;2.10;;;15.00;1.00;;;;;;5004830;28;20450;-86
2023/03/23 10:21:52;;;;;;;7.33;2.87;;;15.00;1.00;;;;;;5015367;28;20865;-85
2023/03/23 10:24:24;;;;;;;6.73;1.70;;;15.20;1.00;;;;;;5008132;28;20522;-88
2023/03/23 10:27:02;;;;;;;5.57;1.90;;;15.30;1.00;;;;;;5006511;28;20438;-89
2023/03/23 10:29:32;;;;;;;7.00;1.80;;;15.20;1.00;;;;;;5007712;28;20549;-88
2023/03/23 10:32:09;;;;;;;7.73;2.30;;;15.30;1.00;;;;;;5019355;28;20475;-89
2023/03/23 10:34:44;;;;;;;6.93;2.20;;;15.30;1.00;;;;;;5009912;28;20430;-86
2023/03/23 10:37:15;;;;;;;7.93;2.13;;;15.40;1.00;;;;;;5005500;28;20485;-86
2023/03/23 10:39:49;;;;;;;5.23;1.90;;;15.70;1.00;;;;;;4994666;28;20412;-89
2023/03/23 10:42:28;;;;;;;8.30;2.50;;;16.10;1.00;;;;;;5011092;28;20515;-87
2023/03/23 10:44:57;;;;;;;5.50;1.80;;;16.20;1.00;;;;;;4997981;28;20482;-86
2023/03/23 10:47:25;;;;;;;5.80;2.30;;;16.30;1.00;;;;;;5007739;28;20477;-87
2023/03/23 10:49:58;;;;;;;5.60;1.80;;;16.40;1.00;;;;;;5008332;28;20545;-85
2023/03/23 10:52:32;;;;;;;5.60;1.50;;;16.10;1.00;;;;;;5009935;28;20457;-85
2023/03/23 10:55:05;;;;;;;6.40;2.03;;;16.10;1.00;;;;;;5012529;28;21369;-84
2023/03/23 10:57:35;;;;;;;10.83;2.40;;;16.10;1.00;;;;;;5006323;28;20478;-82
2023/03/23 11:00:08;;;;;;;5.60;1.83;;;16.20;1.00;;;;;;5003876;28;20458;-84
2023/03/23 11:02:41;;;;;;;6.50;2.13;;;16.10;1.00;;;;;;5001336;28;20485;-81
2023/03/23 11:05:17;;;;;;;5.80;1.93;;;16.00;1.00;;;;;;5010352;28;21014;-81
2023/03/23 11:07:51;;;;;;;9.40;2.40;;;15.80;1.00;;;;;;5011717;28;20489;-85
2023/03/23 11:10:23;;;;;;;5.20;1.60;;;15.70;1.00;;;;;;5005663;28;20553;-85
2023/03/23 11:12:53;;;;;;;5.80;2.27;;;15.70;1.00;;;;;;5010203;28;20477;-87
2023/03/23 11:15:30;;;;;;;7.33;2.70;;;15.80;1.00;;;;;;5005429;28;20466;-82
2023/03/23 11:18:04;;;;;;;6.47;2.23;;;15.70;1.00;;;;;;5002949;28;20465;-82
2023/03/23 11:20:37;;;;;;;7.17;2.03;;;15.80;1.00;;;;;;4992452;28;20421;-83
2023/03/23 11:23:19;;;;;;;7.50;1.90;;;15.80;1.00;;;;;;5000612;28;20522;-85
2023/03/23 11:25:59;;;;;;;8.50;2.53;;;16.00;1.00;;;;;;4997554;28;20433;-83
2023/03/23 11:28:35;;;;;;;7.20;2.30;;;16.10;1.00;;;;;;5005176;28;20557;-83
2023/03/23 11:31:06;;;;;;;6.13;2.60;;;16.10;1.00;;;;;;5005630;28;20490;-83
2023/03/23 11:33:40;;;;;;;8.40;2.67;;;16.10;1.00;;;;;;5006069;28;20520;-86
2023/03/23 11:36:09;;;;;;;5.50;2.00;;;16.20;1.00;;;;;;5004737;28;20668;-85
2023/03/23 11:38:37;;;;;;;8.07;2.30;;;16.30;1.00;;;;;;5005081;28;20510;-84
2023/03/23 11:41:11;;;;;;;9.73;2.20;;;16.30;1.00;;;;;;5000571;28;20446;-87
2023/03/23 11:43:45;;;;;;;9.00;3.20;;;16.30;1.00;;;;;;5011668;28;21310;-85
2023/03/23 11:46:26;;;;;;;5.93;2.07;;;16.40;1.00;;;;;;5011368;28;20482;-85
2023/03/23 11:49:35;;;;;;;6.80;2.20;;;16.60;1.00;;;;;;5015685;28;20539;-85
2023/03/23 11:56:09;;;;;;;11.10;3.27;;;17.30;1.00;;;;;;4950673;28;20465;-89
2023/03/23 11:58:50;;;;;;;6.03;2.10;;;17.30;1.00;;;;;;4956485;28;20723;-88
2023/03/23 12:11:56;;;;;;;6.30;1.87;;;17.70;1.00;;;;;;4929227;28;20572;-86
2023/03/23 12:14:49;;;;;;;6.30;2.60;;;17.60;1.00;;;;;;4943663;28;20568;-85
2023/03/23 12:17:34;;;;;;;5.77;2.07;;;17.80;1.00;;;;;;4965247;28;20564;-87
2023/03/23 12:20:16;;;;;;;6.00;2.23;;;17.80;1.00;;;;;;4997102;28;20464;-87
2023/03/23 12:22:53;;;;;;;6.90;2.10;;;17.50;1.00;;;;;;5000471;28;21328;-89
2023/03/23 12:25:53;;;;;;;6.83;2.60;;;17.40;1.00;;;;;;4986374;28;20560;-89
2023/03/23 12:28:31;;;;;;;7.00;2.90;;;17.30;1.00;;;;;;4999174;28;20476;-86
2023/03/23 12:34:42;;;;;;;5.50;2.23;;;17.40;1.00;;;;;;4976450;28;20444;-88
2023/03/23 12:37:49;;;;;;;7.00;2.13;;;17.30;1.00;;;;;;4974873;28;20428;-92
2023/03/23 12:40:49;;;;;;;6.70;2.00;;;17.40;1.00;;;;;;4974397;28;20490;-79
2023/03/23 12:43:24;;;;;;;5.43;1.90;;;17.30;1.00;;;;;;4995627;28;21187;-89
2023/03/23 12:46:12;;;;;;;6.53;2.07;;;17.20;1.00;;;;;;4993404;28;20533;-84
2023/03/23 12:48:44;;;;;;;8.47;2.37;;;17.10;1.00;;;;;;5005259;28;20479;-83
2023/03/23 12:51:23;;;;;;;7.63;1.97;;;17.00;1.00;;;;;;5000035;28;20479;-83
2023/03/23 12:53:56;;;;;;;6.80;2.50;;;17.00;1.00;;;;;;4984945;28;20462;-85
2023/03/23 12:56:30;;;;;;;7.93;2.10;;;17.10;1.00;;;;;;5011088;28;20463;-86
2023/03/23 12:59:04;;;;;;;8.53;3.07;;;17.00;1.00;;;;;;5008323;28;20627;-86
2023/03/23 13:01:34;;;;;;;6.33;2.27;;;17.10;1.00;;;;;;5005005;28;20471;-87
2023/03/23 13:04:08;;;;;;;6.03;2.10;;;17.30;1.00;;;;;;4987336;28;20467;-84
2023/03/23 13:06:38;;;;;;;6.43;2.10;;;17.90;1.00;;;;;;5000435;28;20581;-84
2023/03/23 13:09:13;;;;;;;6.17;2.13;;;18.80;1.00;;;;;;5002736;28;20442;-86
2023/03/23 14:03:28;;;;;;;5.40;1.93;;;18.90;1.00;;;;;;3065832;23;20971;-82
2023/03/23 14:06:06;;;;;;;5.47;2.50;;;18.80;1.00;;;;;;4964270;28;20466;-82
2023/03/23 14:08:42;;;;;;;5.30;2.00;;;18.70;1.00;;;;;;4966112;28;20473;-82
2023/03/23 14:11:16;;;;;;;6.50;2.43;;;18.40;1.00;;;;;;4974143;28;20481;-84
2023/03/23 14:13:48;;;;;;;8.60;3.60;;;18.50;1.00;;;;;;4970911;28;20466;-82
2023/03/23 14:16:18;;;;;;;5.17;2.07;;;18.60;1.00;;;;;;4971073;28;20542;-84
2023/03/23 14:18:53;;;;;;;5.47;2.27;;;18.60;1.00;;;;;;4969807;28;20441;-83
2023/03/23 14:21:27;;;;;;;6.43;2.20;;;18.50;1.00;;;;;;4967462;28;20447;-83
2023/03/23 14:23:56;;;;;;;5.40;1.90;;;18.40;1.00;;;;;;4965583;28;20475;-83
2023/03/23 14:26:23;;;;;;;6.30;1.73;;;18.40;1.00;;;;;;4969409;28;20907;-83
2023/03/23 14:28:52;;;;;;;5.27;2.10;;;18.20;1.00;;;;;;4950996;28;20604;-83
2023/03/23 14:31:22;;;;;;;4.80;1.93;;;18.10;1.00;;;;;;4965497;28;21001;-83